createdAt,value
2019-01-13T00:00:55.273Z,96436.15
2019-01-13T00:03:43.214Z,96445.09
2019-01-13T00:06:11.882Z,96439.91
2019-01-13T00:08:59.675Z,96436.80
2019-01-13T00:11:47.613Z,96430.56
2019-01-13T00:14:35.554Z,96431.55
2019-01-13T00:17:23.466Z,96427.84
2019-01-13T00:20:11.690Z,96427.89
2019-01-13T00:22:40.470Z,96422.08
2019-01-13T00:28:02.557Z,96424.36
2019-01-13T00:30:31.251Z,96424.56
2019-01-13T00:33:19.160Z,96423.72
2019-01-13T00:36:07.063Z,96423.05
2019-01-13T00:38:54.977Z,96422.25
2019-01-13T00:41:23.675Z,96415.11
2019-01-13T00:44:11.518Z,96405.66
2019-01-13T00:46:59.355Z,96402.73
2019-01-13T00:49:47.188Z,96404.14
2019-01-13T00:52:15.880Z,96409.85
2019-01-13T00:55:03.840Z,96411.73
2019-01-13T00:57:51.947Z,96399.72
2019-01-13T01:01:00.387Z,96400.00
2019-01-13T01:03:48.267Z,96407.26
2019-01-13T01:06:36.267Z,96401.80
2019-01-13T01:09:44.760Z,96399.55
2019-01-13T01:12:53.211Z,96412.34
2019-01-13T01:15:41.033Z,96401.09
2019-01-13T01:18:29.000Z,96402.49
2019-01-13T01:21:16.912Z,96408.01
2019-01-13T01:24:04.804Z,96410.45
2019-01-13T01:26:52.619Z,96407.50
2019-01-13T01:29:40.461Z,96408.59
2019-01-13T01:34:56.716Z,96423.02
2019-01-13T01:37:44.635Z,96423.73
2019-01-13T01:40:53.106Z,96425.27
2019-01-13T01:43:21.809Z,96427.25
2019-01-13T01:46:09.755Z,96437.23
2019-01-13T01:48:38.472Z,96436.83
2019-01-13T01:51:07.131Z,96440.61
2019-01-13T01:53:55.112Z,96439.15
2019-01-13T01:56:42.937Z,96442.25
2019-01-13T01:59:30.877Z,96442.11
2019-01-13T02:01:59.538Z,96440.70
2019-01-13T02:04:47.410Z,96441.13
2019-01-13T02:07:16.084Z,96442.13
2019-01-13T02:10:04.044Z,96446.20
2019-01-13T02:12:52.028Z,96445.70
2019-01-13T02:15:39.961Z,96447.69
2019-01-13T02:18:08.650Z,96444.31
2019-01-13T02:20:56.559Z,96454.66
2019-01-13T02:23:44.495Z,96446.14
2019-01-13T02:26:32.326Z,96450.30
2019-01-13T02:29:20.294Z,96429.03
2019-01-13T02:31:48.989Z,96455.02
2019-01-13T02:34:36.880Z,96453.68
2019-01-13T02:37:45.332Z,96451.35
2019-01-13T02:40:53.795Z,96443.55
2019-01-13T02:43:41.639Z,96444.53
2019-01-13T02:46:29.551Z,96438.75
2019-01-13T02:49:17.397Z,96433.67
2019-01-13T02:52:05.282Z,96432.33
2019-01-13T02:54:53.180Z,96436.22
2019-01-13T02:57:21.888Z,96427.45
2019-01-13T03:00:09.851Z,96434.52
2019-01-13T03:02:57.631Z,96430.78
2019-01-13T03:13:28.931Z,96415.16
2019-01-13T03:16:16.925Z,96421.34
2019-01-13T03:19:25.405Z,96420.23
2019-01-13T03:22:13.175Z,96418.87
2019-01-13T03:25:01.251Z,96424.16
2019-01-13T03:27:50.617Z,96424.44
2019-01-13T03:33:39.720Z,96428.88
2019-01-13T03:36:27.646Z,96422.45
2019-01-13T03:39:15.598Z,96417.18
2019-01-13T03:42:03.547Z,96412.11
2019-01-13T03:44:32.215Z,96411.55
2019-01-13T03:47:20.161Z,96405.41
2019-01-13T03:50:07.946Z,96414.92
2019-01-13T03:53:16.435Z,96422.69
2019-01-13T03:55:45.070Z,96426.47
2019-01-13T03:58:33.023Z,96413.39
2019-01-13T04:01:20.804Z,96408.59
2019-01-13T04:03:49.491Z,96408.72
2019-01-13T04:06:37.451Z,96404.23
2019-01-13T04:09:45.948Z,96392.66
2019-01-13T04:12:33.870Z,96385.12
2019-01-13T04:15:21.871Z,96391.95
2019-01-13T04:18:30.375Z,96395.67
2019-01-13T04:23:53.446Z,96395.63
2019-01-13T04:26:41.384Z,96381.69
2019-01-13T04:29:29.277Z,96374.28
2019-01-13T04:32:17.079Z,96368.85
2019-01-13T04:39:55.152Z,96363.50
2019-01-13T04:42:43.074Z,96363.38
2019-01-13T04:48:25.405Z,96361.67
2019-01-13T04:51:13.199Z,96363.73
2019-01-13T04:56:54.571Z,96368.92
2019-01-13T04:59:23.267Z,96379.00
2019-01-13T05:02:11.147Z,96378.59
2019-01-13T05:04:39.818Z,96372.30
2019-01-13T05:09:43.128Z,96368.30
2019-01-13T05:12:30.946Z,96369.36
2019-01-13T05:14:59.598Z,96357.67
2019-01-13T05:17:28.317Z,96361.75
2019-01-13T05:20:16.106Z,96366.47
2019-01-13T05:22:44.872Z,96361.80
2019-01-13T05:28:08.081Z,96358.00
2019-01-13T05:30:55.869Z,96358.86
2019-01-13T05:33:24.582Z,96350.75
2019-01-13T05:36:12.478Z,96368.73
2019-01-13T05:38:41.145Z,96355.41
2019-01-13T05:41:28.961Z,96349.78
2019-01-13T05:44:16.863Z,96358.00
2019-01-13T05:46:45.565Z,96347.09
2019-01-13T05:49:33.409Z,96340.95
2019-01-13T05:52:21.376Z,96347.45
2019-01-13T05:54:50.042Z,96346.73
2019-01-13T05:57:18.712Z,96338.41
2019-01-13T06:02:42.645Z,96325.93
2019-01-13T06:05:11.390Z,96322.91
2019-01-13T06:07:40.032Z,96324.18
2019-01-13T06:10:48.523Z,96320.94
2019-01-13T06:13:17.192Z,96324.30
2019-01-13T06:15:45.909Z,96313.88
2019-01-13T06:18:33.661Z,96314.46
2019-01-13T06:21:21.603Z,96313.74
2019-01-13T06:24:09.562Z,96311.92
2019-01-13T06:26:38.286Z,96312.95
2019-01-13T06:29:06.995Z,96310.66
2019-01-13T06:31:35.711Z,96311.34
2019-01-13T06:34:18.680Z,96311.34
2019-01-13T06:36:34.799Z,96316.69
2019-01-13T06:41:58.498Z,96310.77
2019-01-13T06:44:27.160Z,96313.78
2019-01-13T06:46:55.867Z,96310.49
2019-01-13T06:52:13.865Z,96312.52
2019-01-13T06:55:01.819Z,96308.44
2019-01-13T06:57:49.599Z,96303.95
2019-01-13T07:00:58.074Z,96295.00
2019-01-13T07:03:26.724Z,96291.56
2019-01-13T07:06:14.678Z,96294.28
2019-01-13T07:08:43.403Z,96285.20
2019-01-13T07:11:31.288Z,96290.47
2019-01-13T07:13:59.948Z,96293.49
2019-01-13T07:16:47.834Z,96285.20
2019-01-13T07:19:16.531Z,96284.41
2019-01-13T07:22:04.501Z,96276.08
2019-01-13T07:24:33.157Z,96274.88
2019-01-13T07:27:21.104Z,96278.31
2019-01-13T07:29:49.866Z,96271.77
2019-01-13T07:32:37.715Z,96250.06
2019-01-13T07:35:46.179Z,96249.86
2019-01-13T07:38:15.147Z,96259.63
2019-01-13T07:41:03.100Z,96255.28
2019-01-13T07:43:31.786Z,96266.52
2019-01-13T07:46:00.497Z,96264.33
2019-01-13T07:48:29.140Z,96262.99
2019-01-13T07:51:17.032Z,96267.70
2019-01-13T07:53:46.006Z,96255.28
2019-01-13T07:59:09.709Z,96263.34
2019-01-13T08:01:38.362Z,96271.02
2019-01-13T08:04:07.053Z,96261.89
2019-01-13T08:06:54.963Z,96257.09
2019-01-13T08:09:42.854Z,96246.56
2019-01-13T08:12:30.796Z,96261.34
2019-01-13T08:14:59.962Z,96267.21
2019-01-13T08:17:28.727Z,96258.56
2019-01-13T08:20:37.649Z,96255.30
2019-01-13T08:23:06.959Z,96254.81
2019-01-13T08:28:24.295Z,96252.94
2019-01-13T08:31:12.383Z,96251.39
2019-01-13T08:33:42.713Z,96254.99
2019-01-13T08:36:11.535Z,96253.05
2019-01-13T08:38:40.922Z,96247.80
2019-01-13T08:41:10.402Z,96248.30
2019-01-13T08:43:39.404Z,96241.52
2019-01-13T08:46:08.058Z,96241.41
2019-01-13T08:48:36.707Z,96236.77
2019-01-13T08:51:06.232Z,96237.44
2019-01-13T08:53:34.911Z,96242.88
2019-01-13T08:56:43.668Z,96241.52
2019-01-13T08:59:12.377Z,96237.98
2019-01-13T09:01:41.065Z,96237.53
2019-01-13T09:04:21.073Z,96223.02
2019-01-13T09:07:10.614Z,96237.72
2019-01-13T09:10:01.160Z,96226.57
2019-01-13T09:12:56.655Z,96232.47
2019-01-13T09:15:42.853Z,96223.91
2019-01-13T09:18:11.642Z,96216.78
2019-01-13T09:23:39.677Z,96206.08
2019-01-13T09:26:08.464Z,96201.39
2019-01-13T09:31:32.384Z,96207.73
2019-01-13T09:34:20.752Z,96203.33
2019-01-13T09:36:49.854Z,96202.94
2019-01-13T09:39:19.320Z,96198.64
2019-01-13T09:42:07.847Z,96191.33
2019-01-13T09:44:37.080Z,96198.25
2019-01-13T09:47:06.286Z,96186.77
2019-01-13T09:49:34.981Z,96199.52
2019-01-13T09:54:59.400Z,96185.70
2019-01-13T09:57:47.535Z,96183.71
2019-01-13T10:00:35.494Z,96176.97
2019-01-13T10:03:24.818Z,96183.71
2019-01-13T10:05:54.103Z,96181.17
2019-01-13T10:13:58.349Z,96175.13
2019-01-13T10:16:46.787Z,96165.24
2019-01-13T10:19:15.885Z,96160.70
2019-01-13T10:21:44.936Z,96157.38
2019-01-13T10:24:15.860Z,96145.41
2019-01-13T10:26:44.717Z,96138.52
2019-01-13T10:29:13.426Z,96124.95
2019-01-13T10:32:01.255Z,96121.89
2019-01-13T10:34:30.857Z,96120.09
2019-01-13T10:36:59.555Z,96113.14
2019-01-13T10:39:47.374Z,96111.92
2019-01-13T10:42:16.078Z,96106.52
2019-01-13T10:44:44.965Z,96093.20
2019-01-13T10:47:13.813Z,96097.61
2019-01-13T10:49:42.596Z,96085.85
2019-01-13T10:52:11.297Z,96084.80
2019-01-13T10:54:59.291Z,96080.93
2019-01-13T10:57:28.059Z,96089.52
2019-01-13T10:59:56.751Z,96078.25
2019-01-13T11:02:25.410Z,96072.08
2019-01-13T11:05:13.674Z,96058.25
2019-01-13T11:08:22.151Z,96058.64
2019-01-13T11:10:50.853Z,96057.65
2019-01-13T11:13:19.586Z,96041.09
2019-01-13T11:15:48.300Z,96041.28
2019-01-13T11:18:16.961Z,96035.88
2019-01-13T11:20:45.601Z,96031.88
2019-01-13T11:23:14.311Z,96029.14
2019-01-13T11:25:42.979Z,96014.47
2019-01-13T11:28:11.745Z,96000.64
2019-01-13T11:30:40.532Z,95995.68
2019-01-13T11:33:09.942Z,95983.36
2019-01-13T11:35:39.618Z,95973.52
2019-01-13T11:38:08.375Z,95966.38
2019-01-13T11:40:37.091Z,95957.89
2019-01-13T11:43:05.795Z,95954.78
2019-01-13T11:45:34.451Z,95952.17
2019-01-13T11:48:03.284Z,95960.56
2019-01-13T11:50:31.947Z,95933.55
2019-01-13T11:53:00.613Z,95926.45
2019-01-13T11:55:29.287Z,95918.43
2019-01-13T11:57:57.993Z,95923.17
2019-01-13T12:00:45.995Z,95906.41
2019-01-13T12:03:17.122Z,95901.83
2019-01-13T12:05:45.426Z,95892.48
2019-01-13T12:08:14.127Z,95893.48
2019-01-13T12:10:42.788Z,95876.77
2019-01-13T12:13:11.505Z,95880.95
2019-01-13T12:15:40.271Z,95868.53
2019-01-13T12:18:09.035Z,95870.53
2019-01-13T12:20:37.841Z,95863.94
2019-01-13T12:23:06.535Z,95865.99
2019-01-13T12:25:54.479Z,95862.72
2019-01-13T12:28:42.413Z,95847.28
2019-01-13T12:31:11.098Z,95847.02
2019-01-13T12:33:39.753Z,95849.39
2019-01-13T12:36:08.454Z,95851.61
2019-01-13T12:38:56.360Z,95853.88
2019-01-13T12:41:25.129Z,95827.27
2019-01-13T12:43:53.880Z,95823.16
2019-01-13T12:46:22.583Z,95824.57
2019-01-13T12:51:38.999Z,95813.90
2019-01-13T12:54:07.720Z,95806.55
2019-01-13T12:56:36.428Z,95795.39
2019-01-13T12:59:05.167Z,95806.10
2019-01-13T13:01:33.826Z,95785.41
2019-01-13T13:04:02.514Z,95795.08
2019-01-13T13:06:31.164Z,95784.67
2019-01-13T13:08:59.878Z,95767.42
2019-01-13T13:11:47.805Z,95752.44
2019-01-13T13:14:16.504Z,95762.64
2019-01-13T13:16:45.274Z,95769.73
2019-01-13T13:19:13.932Z,95761.11
2019-01-13T13:21:42.628Z,95772.05
2019-01-13T13:24:11.306Z,95770.53
2019-01-13T13:26:40.071Z,95769.20
2019-01-13T13:32:15.706Z,95759.75
2019-01-13T13:34:44.452Z,95756.47
2019-01-13T13:37:13.195Z,95760.58
2019-01-13T13:39:41.890Z,95759.05
2019-01-13T13:42:29.723Z,95756.30
2019-01-13T13:44:58.447Z,95754.59
2019-01-13T13:47:27.143Z,95744.47
2019-01-13T13:50:14.993Z,95731.50
2019-01-13T13:52:43.689Z,95742.53
2019-01-13T13:55:31.727Z,95729.12
2019-01-13T13:58:40.193Z,95733.08
2019-01-13T14:01:08.950Z,95721.49
2019-01-13T14:03:37.640Z,95717.16
2019-01-13T14:08:55.616Z,95706.55
2019-01-13T14:11:43.451Z,95715.14
2019-01-13T14:14:31.411Z,95703.75
2019-01-13T14:17:19.187Z,95703.30
2019-01-13T14:19:47.903Z,95691.83
2019-01-13T14:22:35.844Z,95691.09
2019-01-13T14:25:25.270Z,95699.75
2019-01-13T14:27:53.920Z,95675.84
2019-01-13T14:31:02.420Z,95667.05
2019-01-13T14:33:31.075Z,95674.70
2019-01-13T14:35:59.778Z,95676.30
2019-01-13T14:38:28.473Z,95667.44
2019-01-13T14:40:57.132Z,95668.45
2019-01-13T14:43:25.928Z,95672.27
2019-01-13T14:45:54.594Z,95662.58
2019-01-13T14:48:23.239Z,95663.10
2019-01-13T14:50:52.027Z,95652.70
2019-01-13T14:53:39.947Z,95653.03
2019-01-13T14:58:43.248Z,95652.02
2019-01-13T15:01:11.942Z,95641.87
2019-01-13T15:03:40.602Z,95628.92
2019-01-13T15:06:09.406Z,95626.95
2019-01-13T15:08:38.049Z,95632.30
2019-01-13T15:13:41.159Z,95624.98
2019-01-13T15:16:10.275Z,95618.65
2019-01-13T15:18:40.227Z,95617.41
2019-01-13T15:21:08.907Z,95609.75
2019-01-13T15:23:56.805Z,95607.02
2019-01-13T15:26:25.558Z,95618.48
2019-01-13T15:29:13.517Z,95609.34
2019-01-13T15:32:01.358Z,95609.13
2019-01-13T15:34:30.055Z,95614.24
2019-01-13T15:36:58.722Z,95613.45
2019-01-13T15:39:27.489Z,95627.59
2019-01-13T15:41:56.149Z,95613.81
2019-01-13T15:44:24.836Z,95610.94
2019-01-13T15:47:12.701Z,95615.09
2019-01-13T15:49:41.404Z,95600.89
2019-01-13T15:52:29.324Z,95602.89
2019-01-13T15:54:58.025Z,95600.34
2019-01-13T15:57:26.680Z,95600.89
2019-01-13T15:59:55.378Z,95601.36
2019-01-13T16:02:24.078Z,95600.63
2019-01-13T16:04:52.785Z,95601.40
2019-01-13T16:07:21.439Z,95578.70
2019-01-13T16:09:50.092Z,95561.41
2019-01-13T16:12:37.983Z,95562.17
2019-01-13T16:15:46.460Z,95566.80
2019-01-13T16:18:15.112Z,95554.07
2019-01-13T16:20:43.821Z,95562.48
2019-01-13T16:23:12.479Z,95547.73
2019-01-13T16:25:41.161Z,95537.78
2019-01-13T16:28:09.810Z,95528.63
2019-01-13T16:30:38.465Z,95529.65
2019-01-13T16:33:07.144Z,95540.58
2019-01-13T16:35:35.800Z,95547.96
2019-01-13T16:40:59.658Z,95526.58
2019-01-13T16:43:47.572Z,95523.80
2019-01-13T16:51:45.904Z,95525.59
2019-01-13T16:54:14.600Z,95523.58
2019-01-13T16:56:50.283Z,95513.88
2019-01-13T16:59:18.936Z,95505.27
2019-01-13T17:01:47.704Z,95489.97
2019-01-13T17:04:35.613Z,95484.37
2019-01-13T17:07:04.458Z,95475.20
2019-01-13T17:09:33.109Z,95485.64
2019-01-13T17:12:21.004Z,95477.23
2019-01-13T17:14:49.714Z,95470.38
2019-01-13T17:17:18.362Z,95442.85
2019-01-13T17:19:47.083Z,95442.08
2019-01-13T17:22:35.034Z,95420.70
2019-01-13T17:28:11.888Z,95446.17
2019-01-13T17:30:59.934Z,95447.72
2019-01-13T17:33:47.879Z,95441.09
2019-01-13T17:36:16.600Z,95437.01
2019-01-13T17:39:04.423Z,95441.09
2019-01-13T17:41:33.139Z,95439.55
2019-01-13T17:44:01.836Z,95436.48
2019-01-13T17:46:30.492Z,95442.11
2019-01-13T17:49:18.354Z,95444.39
2019-01-13T17:51:47.010Z,95444.66
2019-01-13T17:54:34.844Z,95449.23
2019-01-13T17:57:03.499Z,95442.87
2019-01-13T17:59:51.466Z,95438.28
2019-01-13T18:02:39.364Z,95440.84
2019-01-13T18:05:47.839Z,95441.09
2019-01-13T18:08:35.711Z,95446.94
2019-01-13T18:11:04.370Z,95433.45
2019-01-13T18:13:52.319Z,95427.31
2019-01-13T18:16:21.029Z,95427.31
2019-01-13T18:18:49.671Z,95430.64
2019-01-13T18:21:37.655Z,95431.64
2019-01-13T18:24:25.502Z,95423.25
2019-01-13T18:27:13.325Z,95400.55
2019-01-13T18:29:41.976Z,95396.74
2019-01-13T18:32:29.954Z,95395.97
2019-01-13T18:34:58.719Z,95389.34
2019-01-13T18:37:46.632Z,95388.86
2019-01-13T18:40:55.125Z,95389.63
2019-01-13T18:43:23.785Z,95387.06
2019-01-13T18:45:52.488Z,95372.04
2019-01-13T18:48:21.148Z,95358.27
2019-01-13T18:50:49.807Z,95368.47
2019-01-13T18:53:18.500Z,95361.08
2019-01-13T18:55:47.149Z,95344.75
2019-01-13T19:00:50.409Z,95346.54
2019-01-13T19:03:38.375Z,95349.86
2019-01-13T19:06:07.454Z,95348.83
2019-01-13T19:08:55.233Z,95326.14
2019-01-13T19:11:23.942Z,95327.67
2019-01-13T19:14:32.441Z,95333.77
2019-01-13T19:17:20.399Z,95333.27
2019-01-13T19:20:08.242Z,95334.30
2019-01-13T19:22:36.954Z,95332.49
2019-01-13T19:25:45.434Z,95335.31
2019-01-13T19:28:14.086Z,95322.55
2019-01-13T19:31:01.929Z,95327.39
2019-01-13T19:33:30.612Z,95324.33
2019-01-13T19:38:53.130Z,95341.67
2019-01-13T19:44:50.547Z,95313.87
2019-01-13T19:47:19.250Z,95321.75
2019-01-13T19:49:47.959Z,95321.00
2019-01-13T19:52:35.878Z,95321.25
2019-01-13T19:55:44.463Z,95302.10
2019-01-13T19:58:13.189Z,95306.45
2019-01-13T20:00:41.888Z,95298.03
2019-01-13T20:03:29.891Z,95285.73
2019-01-13T20:05:58.685Z,95279.90
2019-01-13T20:08:49.916Z,95283.47
2019-01-13T20:11:18.601Z,95289.28
2019-01-13T20:13:47.288Z,95273.52
2019-01-13T20:16:35.277Z,95283.69
2019-01-13T20:19:03.994Z,95285.73
2019-01-13T20:21:32.695Z,95282.94
2019-01-13T20:24:01.394Z,95277.09
2019-01-13T20:26:30.191Z,95267.88
2019-01-13T20:28:58.910Z,95279.08
2019-01-13T20:31:46.972Z,95292.08
2019-01-13T20:34:34.858Z,95301.28
2019-01-13T20:37:03.586Z,95296.19
2019-01-13T20:39:32.326Z,95280.63
2019-01-13T20:42:01.028Z,95283.69
2019-01-13T20:44:29.683Z,95293.88
2019-01-13T20:47:17.636Z,95294.38
2019-01-13T20:49:46.411Z,95295.33
2019-01-13T20:52:15.171Z,95288.70
2019-01-13T20:54:43.966Z,95290.17
2019-01-13T20:57:12.628Z,95287.32
2019-01-13T20:59:41.438Z,95289.88
2019-01-13T21:02:10.109Z,95312.84
2019-01-13T21:04:38.831Z,95304.69
2019-01-13T21:07:07.529Z,95311.06
2019-01-13T21:09:36.190Z,95303.10
2019-01-13T21:12:04.956Z,95329.65
2019-01-13T21:14:52.790Z,95312.23
2019-01-13T21:17:40.583Z,95314.09
2019-01-13T21:20:49.778Z,95319.45
2019-01-13T21:23:18.443Z,95301.38
2019-01-13T21:26:06.292Z,95307.23
2019-01-13T21:28:35.092Z,95302.37
2019-01-13T21:31:03.745Z,95314.36
2019-01-13T21:33:32.449Z,95311.06
2019-01-13T21:36:01.112Z,95308.51
2019-01-13T21:38:29.841Z,95310.79
2019-01-13T21:41:19.368Z,95325.89
2019-01-13T21:43:48.133Z,95310.29
2019-01-13T21:46:16.850Z,95317.45
2019-01-13T21:48:45.499Z,95326.63
2019-01-13T21:51:33.582Z,95338.39
2019-01-13T21:56:52.090Z,95313.06
2019-01-13T21:59:20.806Z,95326.80
2019-01-13T22:01:49.458Z,95335.02
2019-01-13T22:04:18.239Z,95350.87
2019-01-13T22:06:46.893Z,95337.58
2019-01-13T22:09:15.632Z,95330.45
2019-01-13T22:11:44.623Z,95326.90
2019-01-13T22:14:13.257Z,95320.52
2019-01-13T22:16:41.950Z,95322.02
2019-01-13T22:19:10.685Z,95316.69
2019-01-13T22:21:39.436Z,95322.79
2019-01-13T22:24:20.213Z,95322.27
2019-01-13T22:26:38.460Z,95325.62
2019-01-13T22:29:07.345Z,95346.05
2019-01-13T22:31:36.000Z,95338.88
2019-01-13T22:34:04.771Z,95329.37
2019-01-13T22:36:33.554Z,95343.66
2019-01-13T22:39:02.324Z,95322.87
2019-01-13T22:41:30.969Z,95332.30
2019-01-13T22:43:59.670Z,95313.43
2019-01-13T22:46:28.327Z,95320.02
2019-01-13T22:48:57.044Z,95313.91
2019-01-13T22:51:25.754Z,95307.84
2019-01-13T22:53:54.509Z,95302.05
2019-01-13T22:56:23.326Z,95305.64
2019-01-13T22:58:52.087Z,95314.03
2019-01-13T23:02:00.555Z,95312.77
2019-01-13T23:04:29.295Z,95304.62
2019-01-13T23:06:57.970Z,95309.97
2019-01-13T23:09:46.408Z,95304.63
2019-01-13T23:12:15.098Z,95302.38
2019-01-13T23:14:43.748Z,95305.95
2019-01-13T23:17:12.556Z,95315.91
2019-01-13T23:20:00.891Z,95333.53
2019-01-13T23:22:29.545Z,95320.00
2019-01-13T23:24:58.237Z,95316.97
2019-01-13T23:27:26.968Z,95321.08
2019-01-13T23:29:55.661Z,95305.03
2019-01-13T23:32:24.451Z,95310.42
2019-01-13T23:34:53.151Z,95314.04
2019-01-13T23:37:21.802Z,95329.34
2019-01-13T23:39:50.504Z,95323.50
2019-01-13T23:42:19.268Z,95319.42
2019-01-13T23:44:47.980Z,95313.83
2019-01-13T23:47:16.747Z,95313.08
2019-01-13T23:50:25.292Z,95314.37
2019-01-13T23:55:48.359Z,95314.91
2019-01-13T23:58:17.053Z,95313.35
